sensor_id;sensor_type;location;lat;lon;timestamp;P1;durP1;ratioP1;P2;durP2;ratioP2
42294;SDS011;27947;47.556;18.718;2024-02-23T00:00:20;4.53;;;2.90;;
42294;SDS011;27947;47.556;18.718;2024-02-23T00:02:45;3.38;;;1.80;;
42294;SDS011;27947;47.556;18.718;2024-02-23T00:05:11;3.03;;;1.92;;
42294;SDS011;27947;47.556;18.718;2024-02-23T00:07:36;3.28;;;1.98;;
42294;SDS011;27947;47.556;18.718;2024-02-23T00:10:01;3.22;;;1.90;;
42294;SDS011;27947;47.556;18.718;2024-02-23T00:12:27;4.95;;;2.00;;
42294;SDS011;27947;47.556;18.718;2024-02-23T00:14:52;3.28;;;1.88;;
42294;SDS011;27947;47.556;18.718;2024-02-23T00:17:17;3.33;;;1.98;;
42294;SDS011;27947;47.556;18.718;2024-02-23T00:19:45;3.45;;;1.77;;
42294;SDS011;27947;47.556;18.718;2024-02-23T00:22:10;3.75;;;2.00;;
42294;SDS011;27947;47.556;18.718;2024-02-23T00:24:36;3.53;;;1.90;;
42294;SDS011;27947;47.556;18.718;2024-02-23T00:27:01;4.38;;;1.83;;
42294;SDS011;27947;47.556;18.718;2024-02-23T00:29:27;6.50;;;2.53;;
42294;SDS011;27947;47.556;18.718;2024-02-23T00:31:52;3.13;;;1.98;;
42294;SDS011;27947;47.556;18.718;2024-02-23T00:34:17;3.58;;;2.10;;
42294;SDS011;27947;47.556;18.718;2024-02-23T00:36:43;3.00;;;1.67;;
42294;SDS011;27947;47.556;18.718;2024-02-23T00:39:09;5.60;;;2.10;;
42294;SDS011;27947;47.556;18.718;2024-02-23T00:41:35;5.28;;;2.17;;
42294;SDS011;27947;47.556;18.718;2024-02-23T00:44:01;3.95;;;2.00;;
42294;SDS011;27947;47.556;18.718;2024-02-23T00:46:26;3.05;;;2.00;;
42294;SDS011;27947;47.556;18.718;2024-02-23T00:48:51;3.28;;;1.65;;
42294;SDS011;27947;47.556;18.718;2024-02-23T00:51:16;4.20;;;2.10;;
42294;SDS011;27947;47.556;18.718;2024-02-23T00:53:42;3.78;;;1.98;;
42294;SDS011;27947;47.556;18.718;2024-02-23T00:56:07;3.60;;;2.08;;
42294;SDS011;27947;47.556;18.718;2024-02-23T00:58:32;3.25;;;2.05;;
42294;SDS011;27947;47.556;18.718;2024-02-23T01:00:58;3.97;;;2.50;;
42294;SDS011;27947;47.556;18.718;2024-02-23T01:03:24;5.30;;;2.63;;
42294;SDS011;27947;47.556;18.718;2024-02-23T01:05:49;6.07;;;2.58;;
42294;SDS011;27947;47.556;18.718;2024-02-23T01:08:14;3.55;;;2.05;;
42294;SDS011;27947;47.556;18.718;2024-02-23T01:10:39;4.22;;;2.08;;
42294;SDS011;27947;47.556;18.718;2024-02-23T01:13:05;3.33;;;2.00;;
42294;SDS011;27947;47.556;18.718;2024-02-23T01:15:30;4.18;;;2.03;;
42294;SDS011;27947;47.556;18.718;2024-02-23T01:17:55;3.20;;;1.90;;
42294;SDS011;27947;47.556;18.718;2024-02-23T01:20:21;4.10;;;1.98;;
42294;SDS011;27947;47.556;18.718;2024-02-23T01:22:46;6.55;;;3.00;;
42294;SDS011;27947;47.556;18.718;2024-02-23T01:25:12;5.13;;;2.22;;
42294;SDS011;27947;47.556;18.718;2024-02-23T01:27:37;5.30;;;2.35;;
42294;SDS011;27947;47.556;18.718;2024-02-23T01:30:02;4.65;;;2.40;;
42294;SDS011;27947;47.556;18.718;2024-02-23T01:32:28;4.38;;;2.30;;
42294;SDS011;27947;47.556;18.718;2024-02-23T01:34:54;7.65;;;2.22;;
42294;SDS011;27947;47.556;18.718;2024-02-23T01:37:19;3.63;;;2.28;;
42294;SDS011;27947;47.556;18.718;2024-02-23T01:39:44;3.67;;;2.05;;
42294;SDS011;27947;47.556;18.718;2024-02-23T01:42:09;3.28;;;2.20;;
42294;SDS011;27947;47.556;18.718;2024-02-23T01:44:35;4.10;;;2.25;;
42294;SDS011;27947;47.556;18.718;2024-02-23T01:47:00;7.97;;;2.70;;
42294;SDS011;27947;47.556;18.718;2024-02-23T01:49:25;5.78;;;2.20;;
42294;SDS011;27947;47.556;18.718;2024-02-23T01:51:55;3.47;;;2.15;;
42294;SDS011;27947;47.556;18.718;2024-02-23T01:54:21;4.65;;;2.30;;
42294;SDS011;27947;47.556;18.718;2024-02-23T01:56:46;5.25;;;2.60;;
42294;SDS011;27947;47.556;18.718;2024-02-23T01:59:12;4.75;;;2.53;;
42294;SDS011;27947;47.556;18.718;2024-02-23T02:01:37;5.95;;;2.67;;
42294;SDS011;27947;47.556;18.718;2024-02-23T02:04:02;3.90;;;2.65;;
42294;SDS011;27947;47.556;18.718;2024-02-23T02:06:27;4.00;;;2.40;;
42294;SDS011;27947;47.556;18.718;2024-02-23T02:08:53;5.97;;;2.40;;
42294;SDS011;27947;47.556;18.718;2024-02-23T02:11:18;5.72;;;2.47;;
42294;SDS011;27947;47.556;18.718;2024-02-23T02:13:44;4.63;;;2.30;;
42294;SDS011;27947;47.556;18.718;2024-02-23T02:16:09;4.78;;;2.50;;
42294;SDS011;27947;47.556;18.718;2024-02-23T02:18:36;5.85;;;2.58;;
42294;SDS011;27947;47.556;18.718;2024-02-23T02:21:01;5.05;;;2.65;;
42294;SDS011;27947;47.556;18.718;2024-02-23T02:23:26;4.55;;;2.40;;
42294;SDS011;27947;47.556;18.718;2024-02-23T02:26:00;3.75;;;2.17;;
42294;SDS011;27947;47.556;18.718;2024-02-23T02:28:26;5.07;;;2.90;;
42294;SDS011;27947;47.556;18.718;2024-02-23T02:30:51;4.88;;;2.80;;
42294;SDS011;27947;47.556;18.718;2024-02-23T02:33:17;3.45;;;2.50;;
42294;SDS011;27947;47.556;18.718;2024-02-23T02:35:43;5.28;;;2.63;;
42294;SDS011;27947;47.556;18.718;2024-02-23T02:38:08;5.55;;;2.70;;
42294;SDS011;27947;47.556;18.718;2024-02-23T02:40:35;4.88;;;2.75;;
42294;SDS011;27947;47.556;18.718;2024-02-23T02:43:00;4.72;;;2.30;;
42294;SDS011;27947;47.556;18.718;2024-02-23T02:45:25;3.50;;;2.55;;
42294;SDS011;27947;47.556;18.718;2024-02-23T02:47:50;6.43;;;3.03;;
42294;SDS011;27947;47.556;18.718;2024-02-23T02:50:16;4.28;;;3.08;;
42294;SDS011;27947;47.556;18.718;2024-02-23T02:52:41;6.13;;;2.90;;
42294;SDS011;27947;47.556;18.718;2024-02-23T02:55:07;6.00;;;2.80;;
42294;SDS011;27947;47.556;18.718;2024-02-23T02:57:32;4.40;;;2.60;;
42294;SDS011;27947;47.556;18.718;2024-02-23T02:59:57;6.55;;;3.78;;
42294;SDS011;27947;47.556;18.718;2024-02-23T03:02:22;5.60;;;3.38;;
42294;SDS011;27947;47.556;18.718;2024-02-23T03:04:48;5.57;;;3.47;;
42294;SDS011;27947;47.556;18.718;2024-02-23T03:07:14;9.98;;;3.15;;
42294;SDS011;27947;47.556;18.718;2024-02-23T03:09:39;5.60;;;3.25;;
42294;SDS011;27947;47.556;18.718;2024-02-23T03:12:04;7.20;;;2.90;;
42294;SDS011;27947;47.556;18.718;2024-02-23T03:14:29;5.35;;;3.00;;
42294;SDS011;27947;47.556;18.718;2024-02-23T03:16:55;4.25;;;3.15;;
42294;SDS011;27947;47.556;18.718;2024-02-23T03:19:20;8.15;;;3.50;;
42294;SDS011;27947;47.556;18.718;2024-02-23T03:21:47;4.80;;;3.00;;
42294;SDS011;27947;47.556;18.718;2024-02-23T03:24:13;7.10;;;3.60;;
42294;SDS011;27947;47.556;18.718;2024-02-23T03:26:38;6.88;;;3.25;;
42294;SDS011;27947;47.556;18.718;2024-02-23T03:29:03;4.47;;;3.22;;
42294;SDS011;27947;47.556;18.718;2024-02-23T03:31:28;6.28;;;3.05;;
42294;SDS011;27947;47.556;18.718;2024-02-23T03:33:54;6.95;;;3.10;;
42294;SDS011;27947;47.556;18.718;2024-02-23T03:36:19;6.35;;;3.40;;
42294;SDS011;27947;47.556;18.718;2024-02-23T03:38:44;6.72;;;2.97;;
42294;SDS011;27947;47.556;18.718;2024-02-23T03:41:09;5.65;;;2.83;;
42294;SDS011;27947;47.556;18.718;2024-02-23T03:43:35;6.70;;;3.05;;
42294;SDS011;27947;47.556;18.718;2024-02-23T03:46:00;7.32;;;3.15;;
42294;SDS011;27947;47.556;18.718;2024-02-23T03:48:25;6.93;;;3.38;;
42294;SDS011;27947;47.556;18.718;2024-02-23T03:50:50;6.97;;;3.35;;
42294;SDS011;27947;47.556;18.718;2024-02-23T03:53:16;6.10;;;3.20;;
42294;SDS011;27947;47.556;18.718;2024-02-23T03:55:41;4.90;;;3.03;;
42294;SDS011;27947;47.556;18.718;2024-02-23T03:58:06;5.18;;;3.30;;
42294;SDS011;27947;47.556;18.718;2024-02-23T04:00:31;7.30;;;3.45;;
42294;SDS011;27947;47.556;18.718;2024-02-23T04:02:57;5.32;;;3.53;;
42294;SDS011;27947;47.556;18.718;2024-02-23T04:05:22;6.65;;;3.25;;
42294;SDS011;27947;47.556;18.718;2024-02-23T04:07:47;5.30;;;3.28;;
42294;SDS011;27947;47.556;18.718;2024-02-23T04:10:13;6.22;;;3.90;;
42294;SDS011;27947;47.556;18.718;2024-02-23T04:12:41;5.05;;;3.20;;
42294;SDS011;27947;47.556;18.718;2024-02-23T04:15:07;4.78;;;3.50;;
42294;SDS011;27947;47.556;18.718;2024-02-23T04:17:33;4.95;;;3.25;;
42294;SDS011;27947;47.556;18.718;2024-02-23T04:19:59;7.10;;;3.83;;
42294;SDS011;27947;47.556;18.718;2024-02-23T04:22:25;5.25;;;3.28;;
42294;SDS011;27947;47.556;18.718;2024-02-23T04:24:50;5.47;;;3.15;;
42294;SDS011;27947;47.556;18.718;2024-02-23T04:27:15;4.43;;;3.38;;
42294;SDS011;27947;47.556;18.718;2024-02-23T04:29:41;12.05;;;3.20;;
42294;SDS011;27947;47.556;18.718;2024-02-23T04:32:06;6.72;;;4.35;;
42294;SDS011;27947;47.556;18.718;2024-02-23T04:34:31;5.30;;;3.30;;
42294;SDS011;27947;47.556;18.718;2024-02-23T04:36:57;5.13;;;3.00;;
42294;SDS011;27947;47.556;18.718;2024-02-23T04:39:22;6.95;;;3.60;;
42294;SDS011;27947;47.556;18.718;2024-02-23T04:41:47;6.32;;;3.38;;
42294;SDS011;27947;47.556;18.718;2024-02-23T04:44:13;4.53;;;2.90;;
42294;SDS011;27947;47.556;18.718;2024-02-23T04:46:38;5.10;;;3.13;;
42294;SDS011;27947;47.556;18.718;2024-02-23T04:49:03;3.80;;;3.05;;
42294;SDS011;27947;47.556;18.718;2024-02-23T04:51:29;6.28;;;2.80;;
42294;SDS011;27947;47.556;18.718;2024-02-23T04:53:54;4.85;;;2.78;;
42294;SDS011;27947;47.556;18.718;2024-02-23T04:56:19;7.93;;;3.05;;
42294;SDS011;27947;47.556;18.718;2024-02-23T04:58:45;4.25;;;2.67;;
42294;SDS011;27947;47.556;18.718;2024-02-23T05:01:11;3.33;;;2.42;;
42294;SDS011;27947;47.556;18.718;2024-02-23T05:03:36;4.45;;;2.10;;
42294;SDS011;27947;47.556;18.718;2024-02-23T05:06:02;3.22;;;1.73;;
42294;SDS011;27947;47.556;18.718;2024-02-23T05:08:27;2.95;;;1.40;;
42294;SDS011;27947;47.556;18.718;2024-02-23T05:10:53;1.88;;;1.08;;
42294;SDS011;27947;47.556;18.718;2024-02-23T05:13:18;2.28;;;0.80;;
42294;SDS011;27947;47.556;18.718;2024-02-23T05:15:43;6.30;;;1.00;;
42294;SDS011;27947;47.556;18.718;2024-02-23T05:18:09;0.70;;;0.60;;
42294;SDS011;27947;47.556;18.718;2024-02-23T05:20:34;0.75;;;0.50;;
42294;SDS011;27947;47.556;18.718;2024-02-23T05:22:59;1.58;;;0.60;;
42294;SDS011;27947;47.556;18.718;2024-02-23T05:25:24;1.00;;;0.45;;
42294;SDS011;27947;47.556;18.718;2024-02-23T05:27:51;1.30;;;0.63;;
42294;SDS011;27947;47.556;18.718;2024-02-23T05:30:16;0.57;;;0.35;;
42294;SDS011;27947;47.556;18.718;2024-02-23T05:32:41;0.50;;;0.40;;
42294;SDS011;27947;47.556;18.718;2024-02-23T05:35:06;0.30;;;0.22;;
42294;SDS011;27947;47.556;18.718;2024-02-23T05:37:33;2.13;;;0.55;;
42294;SDS011;27947;47.556;18.718;2024-02-23T05:39:58;3.25;;;0.50;;
42294;SDS011;27947;47.556;18.718;2024-02-23T05:42:25;2.22;;;0.40;;
42294;SDS011;27947;47.556;18.718;2024-02-23T05:44:50;1.13;;;0.60;;
42294;SDS011;27947;47.556;18.718;2024-02-23T05:47:16;4.28;;;0.63;;
42294;SDS011;27947;47.556;18.718;2024-02-23T05:49:41;1.75;;;0.35;;
42294;SDS011;27947;47.556;18.718;2024-02-23T05:52:06;5.07;;;0.52;;
42294;SDS011;27947;47.556;18.718;2024-02-23T05:54:31;0.88;;;0.40;;
42294;SDS011;27947;47.556;18.718;2024-02-23T05:56:57;0.82;;;0.40;;
42294;SDS011;27947;47.556;18.718;2024-02-23T05:59:22;0.80;;;0.55;;
42294;SDS011;27947;47.556;18.718;2024-02-23T06:01:47;1.40;;;0.40;;
42294;SDS011;27947;47.556;18.718;2024-02-23T06:04:12;1.83;;;0.60;;
42294;SDS011;27947;47.556;18.718;2024-02-23T06:06:41;4.75;;;0.60;;
42294;SDS011;27947;47.556;18.718;2024-02-23T06:09:06;1.05;;;0.57;;
42294;SDS011;27947;47.556;18.718;2024-02-23T06:11:31;2.05;;;0.70;;
42294;SDS011;27947;47.556;18.718;2024-02-23T06:13:56;2.58;;;0.77;;
42294;SDS011;27947;47.556;18.718;2024-02-23T06:16:22;1.92;;;0.70;;
42294;SDS011;27947;47.556;18.718;2024-02-23T06:18:47;3.63;;;1.30;;
42294;SDS011;27947;47.556;18.718;2024-02-23T06:21:17;5.97;;;1.42;;
42294;SDS011;27947;47.556;18.718;2024-02-23T06:23:42;9.73;;;1.85;;
42294;SDS011;27947;47.556;18.718;2024-02-23T06:26:08;6.20;;;1.75;;
42294;SDS011;27947;47.556;18.718;2024-02-23T06:28:33;2.95;;;1.23;;
42294;SDS011;27947;47.556;18.718;2024-02-23T06:30:58;4.90;;;1.23;;
42294;SDS011;27947;47.556;18.718;2024-02-23T06:33:24;5.95;;;2.10;;
42294;SDS011;27947;47.556;18.718;2024-02-23T06:35:49;4.90;;;1.70;;
42294;SDS011;27947;47.556;18.718;2024-02-23T06:38:15;6.82;;;2.20;;
42294;SDS011;27947;47.556;18.718;2024-02-23T06:40:40;5.30;;;1.70;;
42294;SDS011;27947;47.556;18.718;2024-02-23T06:43:05;2.70;;;1.17;;
42294;SDS011;27947;47.556;18.718;2024-02-23T06:45:30;8.15;;;1.85;;
42294;SDS011;27947;47.556;18.718;2024-02-23T06:47:56;3.92;;;1.30;;
42294;SDS011;27947;47.556;18.718;2024-02-23T06:50:21;6.15;;;1.90;;
42294;SDS011;27947;47.556;18.718;2024-02-23T06:52:47;6.88;;;1.92;;
42294;SDS011;27947;47.556;18.718;2024-02-23T06:55:14;5.40;;;1.90;;
42294;SDS011;27947;47.556;18.718;2024-02-23T06:57:39;3.47;;;1.45;;
42294;SDS011;27947;47.556;18.718;2024-02-23T07:00:05;1.92;;;1.02;;
42294;SDS011;27947;47.556;18.718;2024-02-23T07:02:31;3.33;;;0.93;;
42294;SDS011;27947;47.556;18.718;2024-02-23T07:04:59;3.33;;;1.45;;
42294;SDS011;27947;47.556;18.718;2024-02-23T07:07:24;4.90;;;1.67;;
42294;SDS011;27947;47.556;18.718;2024-02-23T07:09:50;1.83;;;1.23;;
42294;SDS011;27947;47.556;18.718;2024-02-23T07:12:17;3.65;;;1.75;;
42294;SDS011;27947;47.556;18.718;2024-02-23T07:14:42;4.13;;;2.13;;
42294;SDS011;27947;47.556;18.718;2024-02-23T07:17:07;4.70;;;2.10;;
42294;SDS011;27947;47.556;18.718;2024-02-23T07:19:33;8.60;;;3.72;;
42294;SDS011;27947;47.556;18.718;2024-02-23T07:21:58;12.00;;;5.47;;
42294;SDS011;27947;47.556;18.718;2024-02-23T07:24:23;8.65;;;3.60;;
42294;SDS011;27947;47.556;18.718;2024-02-23T07:26:49;5.68;;;3.13;;
42294;SDS011;27947;47.556;18.718;2024-02-23T07:29:14;6.95;;;2.25;;
42294;SDS011;27947;47.556;18.718;2024-02-23T07:31:39;5.63;;;2.53;;
42294;SDS011;27947;47.556;18.718;2024-02-23T07:34:04;4.18;;;2.17;;
42294;SDS011;27947;47.556;18.718;2024-02-23T07:36:30;4.90;;;1.50;;
42294;SDS011;27947;47.556;18.718;2024-02-23T07:38:55;2.03;;;0.90;;
42294;SDS011;27947;47.556;18.718;2024-02-23T07:41:20;1.77;;;1.00;;
42294;SDS011;27947;47.556;18.718;2024-02-23T07:43:46;2.05;;;0.90;;
42294;SDS011;27947;47.556;18.718;2024-02-23T07:46:11;2.35;;;1.08;;
42294;SDS011;27947;47.556;18.718;2024-02-23T07:48:37;3.60;;;1.00;;
42294;SDS011;27947;47.556;18.718;2024-02-23T07:51:02;3.80;;;1.10;;
42294;SDS011;27947;47.556;18.718;2024-02-23T07:53:28;1.38;;;0.85;;
42294;SDS011;27947;47.556;18.718;2024-02-23T07:55:53;1.20;;;0.77;;
42294;SDS011;27947;47.556;18.718;2024-02-23T07:58:18;2.72;;;1.00;;
42294;SDS011;27947;47.556;18.718;2024-02-23T08:00:44;2.00;;;0.82;;
42294;SDS011;27947;47.556;18.718;2024-02-23T08:03:09;2.97;;;1.30;;
42294;SDS011;27947;47.556;18.718;2024-02-23T08:05:36;3.35;;;1.67;;
42294;SDS011;27947;47.556;18.718;2024-02-23T08:08:01;5.60;;;2.08;;
42294;SDS011;27947;47.556;18.718;2024-02-23T08:10:26;2.92;;;1.55;;
42294;SDS011;27947;47.556;18.718;2024-02-23T08:12:51;4.45;;;1.85;;
42294;SDS011;27947;47.556;18.718;2024-02-23T08:15:17;3.17;;;2.00;;
42294;SDS011;27947;47.556;18.718;2024-02-23T08:17:42;2.63;;;1.40;;
42294;SDS011;27947;47.556;18.718;2024-02-23T08:20:07;3.92;;;2.03;;
42294;SDS011;27947;47.556;18.718;2024-02-23T08:22:33;3.42;;;1.30;;
42294;SDS011;27947;47.556;18.718;2024-02-23T08:24:58;4.03;;;2.08;;
42294;SDS011;27947;47.556;18.718;2024-02-23T08:27:23;4.90;;;1.60;;
42294;SDS011;27947;47.556;18.718;2024-02-23T08:29:49;2.17;;;1.13;;
42294;SDS011;27947;47.556;18.718;2024-02-23T08:32:14;3.67;;;1.45;;
42294;SDS011;27947;47.556;18.718;2024-02-23T08:34:39;5.78;;;2.00;;
42294;SDS011;27947;47.556;18.718;2024-02-23T08:37:04;3.17;;;1.70;;
42294;SDS011;27947;47.556;18.718;2024-02-23T08:39:30;4.50;;;1.50;;
42294;SDS011;27947;47.556;18.718;2024-02-23T08:41:55;4.43;;;2.10;;
42294;SDS011;27947;47.556;18.718;2024-02-23T08:44:20;3.60;;;1.75;;
42294;SDS011;27947;47.556;18.718;2024-02-23T08:46:45;5.18;;;1.80;;
42294;SDS011;27947;47.556;18.718;2024-02-23T08:49:11;4.47;;;2.03;;
42294;SDS011;27947;47.556;18.718;2024-02-23T08:51:36;3.65;;;2.17;;
42294;SDS011;27947;47.556;18.718;2024-02-23T08:54:02;4.30;;;2.55;;
42294;SDS011;27947;47.556;18.718;2024-02-23T08:56:29;3.40;;;1.95;;
42294;SDS011;27947;47.556;18.718;2024-02-23T08:58:54;4.40;;;2.42;;
42294;SDS011;27947;47.556;18.718;2024-02-23T09:01:20;5.70;;;3.08;;
42294;SDS011;27947;47.556;18.718;2024-02-23T09:03:45;6.45;;;2.78;;
42294;SDS011;27947;47.556;18.718;2024-02-23T09:06:10;5.88;;;2.70;;
42294;SDS011;27947;47.556;18.718;2024-02-23T09:08:36;5.25;;;2.70;;
42294;SDS011;27947;47.556;18.718;2024-02-23T09:11:01;8.85;;;3.25;;
42294;SDS011;27947;47.556;18.718;2024-02-23T09:13:26;5.95;;;2.40;;
42294;SDS011;27947;47.556;18.718;2024-02-23T09:15:54;3.15;;;2.05;;
42294;SDS011;27947;47.556;18.718;2024-02-23T09:18:20;4.85;;;1.92;;
42294;SDS011;27947;47.556;18.718;2024-02-23T09:20:45;4.20;;;2.13;;
42294;SDS011;27947;47.556;18.718;2024-02-23T09:23:10;4.47;;;2.35;;
42294;SDS011;27947;47.556;18.718;2024-02-23T09:25:37;4.57;;;2.50;;
42294;SDS011;27947;47.556;18.718;2024-02-23T09:28:02;3.85;;;2.30;;
42294;SDS011;27947;47.556;18.718;2024-02-23T09:30:28;4.85;;;2.33;;
42294;SDS011;27947;47.556;18.718;2024-02-23T09:32:53;3.72;;;2.22;;
42294;SDS011;27947;47.556;18.718;2024-02-23T09:35:19;3.05;;;2.00;;
42294;SDS011;27947;47.556;18.718;2024-02-23T09:37:45;2.65;;;2.00;;
42294;SDS011;27947;47.556;18.718;2024-02-23T09:40:10;5.45;;;2.10;;
42294;SDS011;27947;47.556;18.718;2024-02-23T09:42:36;4.22;;;1.90;;
42294;SDS011;27947;47.556;18.718;2024-02-23T09:45:03;6.57;;;1.83;;
42294;SDS011;27947;47.556;18.718;2024-02-23T09:47:30;3.97;;;2.20;;
42294;SDS011;27947;47.556;18.718;2024-02-23T09:49:56;2.80;;;1.92;;
42294;SDS011;27947;47.556;18.718;2024-02-23T09:52:21;4.05;;;2.80;;
42294;SDS011;27947;47.556;18.718;2024-02-23T09:54:47;5.32;;;2.80;;
42294;SDS011;27947;47.556;18.718;2024-02-23T09:57:13;7.82;;;3.45;;
42294;SDS011;27947;47.556;18.718;2024-02-23T09:59:39;7.25;;;3.17;;
42294;SDS011;27947;47.556;18.718;2024-02-23T10:02:06;6.32;;;2.85;;
42294;SDS011;27947;47.556;18.718;2024-02-23T10:04:33;7.25;;;3.67;;
42294;SDS011;27947;47.556;18.718;2024-02-23T10:06:58;4.15;;;2.60;;
42294;SDS011;27947;47.556;18.718;2024-02-23T10:09:24;5.60;;;3.42;;
42294;SDS011;27947;47.556;18.718;2024-02-23T10:11:53;6.72;;;2.95;;
42294;SDS011;27947;47.556;18.718;2024-02-23T10:14:18;6.97;;;3.58;;
42294;SDS011;27947;47.556;18.718;2024-02-23T10:16:44;7.82;;;4.35;;
42294;SDS011;27947;47.556;18.718;2024-02-23T10:19:09;6.75;;;3.35;;
42294;SDS011;27947;47.556;18.718;2024-02-23T10:21:34;5.78;;;3.53;;
42294;SDS011;27947;47.556;18.718;2024-02-23T10:24:00;4.78;;;2.70;;
42294;SDS011;27947;47.556;18.718;2024-02-23T10:26:26;2.65;;;1.73;;
42294;SDS011;27947;47.556;18.718;2024-02-23T10:28:51;3.83;;;1.77;;
42294;SDS011;27947;47.556;18.718;2024-02-23T10:31:17;6.10;;;2.38;;
42294;SDS011;27947;47.556;18.718;2024-02-23T10:33:42;5.90;;;2.75;;
42294;SDS011;27947;47.556;18.718;2024-02-23T10:36:09;6.93;;;3.03;;
42294;SDS011;27947;47.556;18.718;2024-02-23T10:38:37;10.13;;;3.05;;
42294;SDS011;27947;47.556;18.718;2024-02-23T10:41:04;10.73;;;4.22;;
42294;SDS011;27947;47.556;18.718;2024-02-23T10:43:30;12.75;;;4.55;;
42294;SDS011;27947;47.556;18.718;2024-02-23T10:45:59;7.38;;;2.75;;
42294;SDS011;27947;47.556;18.718;2024-02-23T10:48:27;4.03;;;2.22;;
42294;SDS011;27947;47.556;18.718;2024-02-23T10:50:53;4.93;;;2.15;;
42294;SDS011;27947;47.556;18.718;2024-02-23T10:53:19;5.13;;;2.10;;
42294;SDS011;27947;47.556;18.718;2024-02-23T10:55:44;6.43;;;3.00;;
42294;SDS011;27947;47.556;18.718;2024-02-23T10:58:10;8.02;;;3.17;;
42294;SDS011;27947;47.556;18.718;2024-02-23T11:00:37;5.68;;;3.15;;
42294;SDS011;27947;47.556;18.718;2024-02-23T11:03:02;7.90;;;2.97;;
42294;SDS011;27947;47.556;18.718;2024-02-23T11:05:28;5.30;;;2.90;;
42294;SDS011;27947;47.556;18.718;2024-02-23T11:07:58;4.75;;;2.80;;
42294;SDS011;27947;47.556;18.718;2024-02-23T11:10:23;3.40;;;1.70;;
42294;SDS011;27947;47.556;18.718;2024-02-23T11:12:59;5.50;;;2.08;;
42294;SDS011;27947;47.556;18.718;2024-02-23T11:17:50;3.13;;;1.60;;
42294;SDS011;27947;47.556;18.718;2024-02-23T11:20:16;2.75;;;1.20;;
42294;SDS011;27947;47.556;18.718;2024-02-23T11:22:41;1.90;;;1.40;;
42294;SDS011;27947;47.556;18.718;2024-02-23T11:25:07;8.38;;;1.42;;
42294;SDS011;27947;47.556;18.718;2024-02-23T11:27:38;2.85;;;1.42;;
42294;SDS011;27947;47.556;18.718;2024-02-23T11:30:09;3.00;;;1.52;;
42294;SDS011;27947;47.556;18.718;2024-02-23T11:35:06;1.98;;;1.40;;
42294;SDS011;27947;47.556;18.718;2024-02-23T11:37:32;3.00;;;1.63;;
42294;SDS011;27947;47.556;18.718;2024-02-23T11:39:58;1.80;;;1.27;;
42294;SDS011;27947;47.556;18.718;2024-02-23T11:42:23;3.50;;;1.35;;
42294;SDS011;27947;47.556;18.718;2024-02-23T11:44:50;2.22;;;1.30;;
42294;SDS011;27947;47.556;18.718;2024-02-23T11:47:15;2.45;;;1.33;;
42294;SDS011;27947;47.556;18.718;2024-02-23T11:49:42;2.20;;;1.23;;
42294;SDS011;27947;47.556;18.718;2024-02-23T11:52:07;2.17;;;1.40;;
42294;SDS011;27947;47.556;18.718;2024-02-23T11:54:32;4.90;;;1.77;;
42294;SDS011;27947;47.556;18.718;2024-02-23T11:56:58;3.45;;;1.75;;
42294;SDS011;27947;47.556;18.718;2024-02-23T11:59:23;5.28;;;2.50;;
42294;SDS011;27947;47.556;18.718;2024-02-23T12:01:50;5.22;;;2.30;;
42294;SDS011;27947;47.556;18.718;2024-02-23T12:04:15;4.07;;;1.98;;
42294;SDS011;27947;47.556;18.718;2024-02-23T12:06:41;5.00;;;2.80;;
42294;SDS011;27947;47.556;18.718;2024-02-23T12:09:07;5.22;;;2.35;;
42294;SDS011;27947;47.556;18.718;2024-02-23T12:11:32;3.90;;;2.30;;
42294;SDS011;27947;47.556;18.718;2024-02-23T12:13:57;4.30;;;1.80;;
42294;SDS011;27947;47.556;18.718;2024-02-23T12:16:23;3.95;;;2.47;;
42294;SDS011;27947;47.556;18.718;2024-02-23T12:18:54;9.98;;;3.28;;
42294;SDS011;27947;47.556;18.718;2024-02-23T12:21:23;5.72;;;2.95;;
42294;SDS011;27947;47.556;18.718;2024-02-23T12:23:48;8.07;;;2.97;;
42294;SDS011;27947;47.556;18.718;2024-02-23T12:26:15;6.55;;;2.17;;
42294;SDS011;27947;47.556;18.718;2024-02-23T12:28:41;5.18;;;2.65;;
42294;SDS011;27947;47.556;18.718;2024-02-23T12:31:06;3.60;;;2.38;;
42294;SDS011;27947;47.556;18.718;2024-02-23T12:33:32;2.85;;;1.80;;
42294;SDS011;27947;47.556;18.718;2024-02-23T12:35:58;3.97;;;2.10;;
42294;SDS011;27947;47.556;18.718;2024-02-23T12:38:23;4.35;;;1.90;;
42294;SDS011;27947;47.556;18.718;2024-02-23T12:40:48;4.70;;;2.47;;
42294;SDS011;27947;47.556;18.718;2024-02-23T12:43:14;10.10;;;3.75;;
42294;SDS011;27947;47.556;18.718;2024-02-23T12:45:39;6.45;;;3.17;;
42294;SDS011;27947;47.556;18.718;2024-02-23T12:48:05;8.40;;;4.22;;
42294;SDS011;27947;47.556;18.718;2024-02-23T12:50:30;9.43;;;4.90;;
42294;SDS011;27947;47.556;18.718;2024-02-23T12:52:56;8.20;;;4.43;;
42294;SDS011;27947;47.556;18.718;2024-02-23T12:55:21;7.15;;;4.53;;
42294;SDS011;27947;47.556;18.718;2024-02-23T12:57:47;9.27;;;5.38;;
42294;SDS011;27947;47.556;18.718;2024-02-23T13:00:12;8.90;;;4.47;;
42294;SDS011;27947;47.556;18.718;2024-02-23T13:02:37;44.75;;;7.82;;
42294;SDS011;27947;47.556;18.718;2024-02-23T13:05:03;5.93;;;3.70;;
42294;SDS011;27947;47.556;18.718;2024-02-23T13:07:28;5.30;;;3.13;;
42294;SDS011;27947;47.556;18.718;2024-02-23T13:09:53;6.32;;;3.70;;
42294;SDS011;27947;47.556;18.718;2024-02-23T13:12:19;6.13;;;3.90;;
42294;SDS011;27947;47.556;18.718;2024-02-23T13:14:44;10.13;;;3.45;;
42294;SDS011;27947;47.556;18.718;2024-02-23T13:17:09;9.32;;;4.07;;
42294;SDS011;27947;47.556;18.718;2024-02-23T13:19:34;5.78;;;2.92;;
42294;SDS011;27947;47.556;18.718;2024-02-23T13:22:00;8.50;;;3.08;;
42294;SDS011;27947;47.556;18.718;2024-02-23T13:24:28;5.07;;;3.10;;
42294;SDS011;27947;47.556;18.718;2024-02-23T13:26:53;9.05;;;4.10;;
42294;SDS011;27947;47.556;18.718;2024-02-23T13:29:18;6.22;;;3.63;;
42294;SDS011;27947;47.556;18.718;2024-02-23T13:31:43;6.57;;;3.50;;
42294;SDS011;27947;47.556;18.718;2024-02-23T13:34:09;12.25;;;4.47;;
42294;SDS011;27947;47.556;18.718;2024-02-23T13:36:35;7.10;;;3.50;;
42294;SDS011;27947;47.556;18.718;2024-02-23T13:39:00;6.00;;;4.05;;
42294;SDS011;27947;47.556;18.718;2024-02-23T13:41:26;7.28;;;4.45;;
42294;SDS011;27947;47.556;18.718;2024-02-23T13:43:51;6.65;;;4.53;;
42294;SDS011;27947;47.556;18.718;2024-02-23T13:46:16;8.07;;;4.38;;
42294;SDS011;27947;47.556;18.718;2024-02-23T13:48:41;10.07;;;5.00;;
42294;SDS011;27947;47.556;18.718;2024-02-23T13:51:07;8.48;;;5.07;;
42294;SDS011;27947;47.556;18.718;2024-02-23T13:53:33;9.18;;;5.18;;
42294;SDS011;27947;47.556;18.718;2024-02-23T13:55:59;12.43;;;7.05;;
42294;SDS011;27947;47.556;18.718;2024-02-23T13:58:26;9.75;;;6.32;;
42294;SDS011;27947;47.556;18.718;2024-02-23T14:00:52;11.30;;;5.82;;
42294;SDS011;27947;47.556;18.718;2024-02-23T14:03:18;7.85;;;5.00;;
42294;SDS011;27947;47.556;18.718;2024-02-23T14:05:43;10.45;;;5.55;;
42294;SDS011;27947;47.556;18.718;2024-02-23T14:08:10;11.85;;;5.80;;
42294;SDS011;27947;47.556;18.718;2024-02-23T14:10:35;8.32;;;5.20;;
42294;SDS011;27947;47.556;18.718;2024-02-23T14:13:00;10.75;;;5.85;;
42294;SDS011;27947;47.556;18.718;2024-02-23T14:15:26;9.48;;;4.93;;
42294;SDS011;27947;47.556;18.718;2024-02-23T14:17:52;8.98;;;5.30;;
42294;SDS011;27947;47.556;18.718;2024-02-23T14:20:17;9.68;;;5.60;;
42294;SDS011;27947;47.556;18.718;2024-02-23T14:22:42;10.25;;;5.70;;
42294;SDS011;27947;47.556;18.718;2024-02-23T14:25:08;9.02;;;5.85;;
42294;SDS011;27947;47.556;18.718;2024-02-23T14:27:33;11.55;;;6.60;;